createdAt,value
2023-03-04T00:01:02.434Z,9.90
2023-03-04T00:03:07.370Z,14.82
2023-03-04T00:05:11.457Z,14.35
2023-03-04T00:07:17.144Z,12.15
2023-03-04T00:09:20.991Z,9.68
2023-03-04T00:11:24.531Z,9.32
2023-03-04T00:13:28.003Z,12.90
2023-03-04T00:15:31.571Z,13.32
2023-03-04T00:17:35.180Z,9.88
2023-03-04T00:19:40.246Z,7.57
2023-03-04T00:21:43.734Z,16.45
2023-03-04T00:23:47.451Z,12.18
2023-03-04T00:25:51.120Z,8.55
2023-03-04T00:27:54.607Z,7.95
2023-03-04T00:29:59.052Z,12.07
2023-03-04T00:32:02.717Z,11.05
2023-03-04T00:34:06.244Z,16.88
2023-03-04T00:36:12.511Z,10.63
2023-03-04T00:38:16.080Z,15.38
2023-03-04T00:40:19.902Z,15.48
2023-03-04T00:42:23.467Z,22.50
2023-03-04T00:44:28.150Z,23.98
2023-03-04T00:46:32.002Z,34.10
2023-03-04T00:48:35.492Z,21.83
2023-03-04T00:50:39.229Z,28.67
2023-03-04T00:52:44.156Z,32.60
2023-03-04T00:54:47.840Z,55.72
2023-03-04T00:56:51.620Z,43.35
2023-03-04T00:58:55.122Z,52.60
2023-03-04T01:00:58.814Z,46.75
2023-03-04T01:03:02.611Z,41.40
2023-03-04T01:05:06.932Z,20.85
2023-03-04T01:07:10.661Z,14.38
2023-03-04T01:09:15.651Z,12.75
2023-03-04T01:11:19.193Z,12.68
2023-03-04T01:13:22.641Z,16.83
2023-03-04T01:15:26.150Z,12.23
2023-03-04T01:17:29.979Z,19.10
2023-03-04T01:19:33.436Z,19.33
2023-03-04T01:21:37.135Z,19.58
2023-03-04T01:23:40.648Z,19.02
2023-03-04T01:25:45.562Z,26.63
2023-03-04T01:27:48.986Z,17.73
2023-03-04T01:29:52.667Z,23.77
2023-03-04T01:31:56.063Z,47.30
2023-03-04T01:33:59.648Z,44.78
2023-03-04T01:36:03.148Z,24.45
2023-03-04T01:38:06.728Z,49.40
2023-03-04T01:40:12.372Z,26.75
2023-03-04T01:42:21.502Z,26.60
2023-03-04T01:44:24.996Z,24.65
2023-03-04T01:46:28.670Z,25.77
2023-03-04T01:48:36.644Z,18.35
2023-03-04T01:50:40.208Z,16.83
2023-03-04T01:52:44.190Z,17.33
2023-03-04T01:54:50.047Z,14.38
2023-03-04T01:56:54.153Z,12.27
2023-03-04T01:59:14.382Z,11.43
2023-03-04T02:01:18.113Z,15.27
2023-03-04T02:03:23.579Z,12.27
2023-03-04T02:05:27.700Z,11.95
2023-03-04T02:07:31.384Z,15.55
2023-03-04T02:09:35.935Z,12.90
2023-03-04T02:11:41.710Z,12.65
2023-03-04T02:13:45.195Z,28.13
2023-03-04T02:15:50.463Z,16.98
2023-03-04T02:17:54.001Z,15.30
2023-03-04T02:20:04.543Z,12.13
2023-03-04T02:22:08.271Z,11.60
2023-03-04T02:24:16.805Z,11.95
2023-03-04T02:26:23.219Z,16.00
2023-03-04T02:28:26.716Z,12.55
2023-03-04T02:30:30.448Z,20.50
2023-03-04T02:32:34.028Z,11.50
2023-03-04T02:34:37.835Z,8.57
2023-03-04T02:36:42.133Z,14.05
2023-03-04T02:38:45.552Z,13.15
2023-03-04T02:40:52.807Z,13.32
2023-03-04T02:43:00.296Z,11.32
2023-03-04T02:45:03.928Z,10.73
2023-03-04T02:47:10.079Z,13.75
2023-03-04T02:49:13.592Z,15.32
2023-03-04T02:51:17.561Z,13.70
2023-03-04T02:53:22.308Z,13.00
2023-03-04T02:55:25.698Z,9.73
2023-03-04T02:57:29.294Z,10.93
2023-03-04T02:59:34.229Z,11.73
2023-03-04T03:01:37.810Z,12.57
2023-03-04T03:03:44.561Z,17.00
2023-03-04T03:05:48.056Z,11.13
2023-03-04T03:07:51.795Z,10.57
2023-03-04T03:09:55.359Z,13.15
2023-03-04T03:11:58.885Z,13.25
2023-03-04T03:14:02.592Z,12.63
2023-03-04T03:16:08.235Z,13.52
2023-03-04T03:18:12.406Z,13.80
2023-03-04T03:20:17.236Z,13.32
2023-03-04T03:22:20.862Z,9.38
2023-03-04T03:24:24.430Z,10.82
2023-03-04T03:26:27.917Z,13.18
2023-03-04T03:28:31.827Z,10.15
2023-03-04T03:30:35.437Z,14.40
2023-03-04T03:32:40.475Z,11.05
2023-03-04T03:34:43.974Z,14.38
2023-03-04T03:36:47.553Z,13.63
2023-03-04T03:38:51.377Z,12.13
2023-03-04T03:40:54.873Z,12.35
2023-03-04T03:42:58.772Z,10.73
2023-03-04T03:45:02.443Z,13.13
2023-03-04T03:47:06.040Z,11.90
2023-03-04T03:49:10.889Z,13.43
2023-03-04T03:51:14.486Z,17.90
2023-03-04T03:53:17.966Z,17.63
2023-03-04T03:55:21.656Z,15.07
2023-03-04T03:57:25.277Z,11.18
2023-03-04T03:59:28.898Z,14.00
2023-03-04T04:01:33.816Z,13.48
2023-03-04T04:03:37.532Z,19.35
2023-03-04T04:05:42.510Z,10.50
2023-03-04T04:07:46.124Z,12.30
2023-03-04T04:09:49.642Z,18.92
2023-03-04T04:11:53.398Z,18.45
2023-03-04T04:13:56.825Z,17.13
2023-03-04T04:16:00.405Z,11.20
2023-03-04T04:18:03.893Z,16.45
2023-03-04T04:20:09.540Z,19.50
2023-03-04T04:22:16.099Z,12.63
2023-03-04T04:24:19.643Z,13.10
2023-03-04T04:26:23.134Z,12.07
2023-03-04T04:28:26.690Z,14.68
2023-03-04T04:30:30.296Z,12.48
2023-03-04T04:32:33.889Z,18.58
2023-03-04T04:34:37.574Z,22.52
2023-03-04T04:36:41.169Z,42.55
2023-03-04T04:38:46.411Z,41.83
2023-03-04T04:40:50.209Z,46.53
2023-03-04T04:42:53.713Z,37.20
2023-03-04T04:44:57.818Z,49.92
2023-03-04T04:47:01.483Z,36.50
2023-03-04T04:49:05.560Z,40.50
2023-03-04T04:51:09.326Z,53.13
2023-03-04T04:53:14.480Z,41.85
2023-03-04T04:55:20.010Z,34.60
2023-03-04T04:57:23.533Z,23.45
2023-03-04T04:59:26.927Z,29.13
2023-03-04T05:01:30.660Z,17.83
2023-03-04T05:03:34.512Z,17.00
2023-03-04T05:05:38.232Z,19.67
2023-03-04T05:07:41.748Z,13.63
2023-03-04T05:09:46.021Z,20.65
2023-03-04T05:11:51.570Z,17.80
2023-03-04T05:13:55.252Z,24.48
2023-03-04T05:15:59.316Z,18.15
2023-03-04T05:18:02.854Z,17.75
2023-03-04T05:20:07.486Z,15.60
2023-03-04T05:22:12.300Z,24.65
2023-03-04T05:24:15.721Z,14.05
2023-03-04T05:26:20.023Z,12.02
2023-03-04T05:28:25.651Z,13.07
2023-03-04T05:30:29.252Z,13.60
2023-03-04T05:32:32.787Z,14.55
2023-03-04T05:34:36.289Z,13.50
2023-03-04T05:36:39.767Z,22.58
2023-03-04T05:38:43.201Z,18.88
2023-03-04T05:40:47.578Z,13.88
2023-03-04T05:42:50.932Z,19.38
2023-03-04T05:44:55.867Z,17.75
2023-03-04T05:46:59.360Z,18.55
2023-03-04T05:49:02.852Z,16.27
2023-03-04T05:51:06.853Z,17.90
2023-03-04T05:53:10.509Z,15.07
2023-03-04T05:55:14.490Z,19.50
2023-03-04T05:57:17.923Z,17.67
2023-03-04T05:59:21.552Z,19.38
2023-03-04T06:01:26.504Z,20.60
2023-03-04T06:03:30.042Z,15.38
2023-03-04T06:05:33.600Z,18.45
2023-03-04T06:07:37.176Z,22.70
2023-03-04T06:09:40.667Z,21.27
2023-03-04T06:11:44.165Z,24.88
2023-03-04T06:13:47.591Z,22.23
2023-03-04T06:15:56.410Z,27.13
2023-03-04T06:18:01.405Z,21.90
2023-03-04T06:20:06.843Z,27.38
2023-03-04T06:22:11.158Z,31.38
2023-03-04T06:24:14.861Z,30.75
2023-03-04T06:26:18.455Z,25.10
2023-03-04T06:28:25.088Z,24.40
2023-03-04T06:30:29.751Z,26.38
2023-03-04T06:32:33.404Z,24.70
2023-03-04T06:34:38.490Z,18.77
2023-03-04T06:36:42.025Z,25.85
2023-03-04T06:38:45.565Z,19.35
2023-03-04T06:40:49.179Z,18.42
2023-03-04T06:42:52.806Z,16.60
2023-03-04T06:44:56.198Z,18.27
2023-03-04T06:46:59.692Z,19.27
2023-03-04T06:49:03.296Z,22.67
2023-03-04T06:51:09.323Z,14.23
2023-03-04T06:53:12.893Z,18.13
2023-03-04T06:55:16.397Z,17.48
2023-03-04T06:57:19.903Z,13.43
2023-03-04T06:59:24.714Z,12.20
2023-03-04T07:01:29.971Z,13.13
2023-03-04T07:03:33.439Z,23.95
2023-03-04T07:05:36.880Z,16.88
2023-03-04T07:07:42.172Z,14.52
2023-03-04T07:09:45.665Z,14.65
2023-03-04T07:11:49.383Z,16.77
2023-03-04T07:13:53.067Z,15.50
2023-03-04T07:15:56.605Z,14.20
2023-03-04T07:18:00.156Z,13.65
2023-03-04T07:20:04.017Z,13.63
2023-03-04T07:22:07.569Z,15.48
2023-03-04T07:24:12.626Z,11.37
2023-03-04T07:26:16.022Z,11.90
2023-03-04T07:28:19.685Z,15.87
2023-03-04T07:30:23.535Z,12.80
2023-03-04T07:32:27.213Z,9.87
2023-03-04T07:34:31.025Z,12.83
2023-03-04T07:36:35.397Z,10.63
2023-03-04T07:38:38.827Z,14.03
2023-03-04T07:40:43.620Z,10.30
2023-03-04T07:42:51.350Z,11.33
2023-03-04T07:44:55.572Z,15.27
2023-03-04T07:46:59.052Z,15.60
2023-03-04T07:49:02.554Z,9.13
2023-03-04T07:51:11.034Z,13.00
2023-03-04T07:53:14.452Z,10.17
2023-03-04T07:55:18.047Z,13.13
2023-03-04T07:57:22.819Z,10.97
2023-03-04T07:59:26.488Z,11.03
2023-03-04T08:01:31.979Z,8.57
2023-03-04T08:03:35.406Z,14.50
2023-03-04T08:05:41.218Z,14.80
2023-03-04T08:07:44.617Z,10.40
2023-03-04T08:09:48.110Z,9.03
2023-03-04T08:11:51.958Z,8.23
2023-03-04T08:13:56.844Z,11.40
2023-03-04T08:16:00.601Z,10.67
2023-03-04T08:18:04.172Z,14.77
2023-03-04T08:20:08.774Z,13.87
2023-03-04T08:22:12.258Z,9.27
2023-03-04T08:24:15.861Z,10.60
2023-03-04T08:26:21.625Z,9.57
2023-03-04T08:28:25.034Z,10.00
2023-03-04T08:30:29.750Z,15.53
2023-03-04T08:32:33.898Z,11.10
2023-03-04T08:34:40.135Z,10.20
2023-03-04T08:36:44.102Z,14.83
2023-03-04T08:38:47.719Z,8.13
2023-03-04T08:40:54.496Z,12.13
2023-03-04T08:42:58.160Z,12.60
2023-03-04T08:45:01.908Z,13.63
2023-03-04T08:47:09.295Z,13.50
2023-03-04T08:49:14.637Z,15.20
2023-03-04T08:51:18.232Z,15.30
2023-03-04T08:53:22.834Z,11.50
2023-03-04T08:55:26.365Z,10.10
2023-03-04T08:57:30.061Z,14.70
2023-03-04T08:59:33.509Z,9.80
2023-03-04T09:01:37.134Z,7.00
2023-03-04T09:03:43.100Z,18.60
2023-03-04T09:05:47.886Z,7.47
2023-03-04T09:07:51.355Z,12.40
2023-03-04T09:09:54.863Z,10.47
2023-03-04T09:11:58.264Z,10.23
2023-03-04T09:14:01.870Z,14.60
2023-03-04T09:16:10.019Z,12.60
2023-03-04T09:18:13.855Z,9.67
2023-03-04T09:20:18.688Z,8.30
2023-03-04T09:22:22.480Z,9.27
2023-03-04T09:24:26.092Z,9.60
2023-03-04T09:26:31.002Z,11.67
2023-03-04T09:28:34.423Z,9.07
2023-03-04T09:30:37.997Z,6.07
2023-03-04T09:32:42.042Z,11.27
2023-03-04T09:34:45.613Z,17.97
2023-03-04T09:36:51.000Z,16.03
2023-03-04T09:38:54.738Z,8.47
2023-03-04T09:40:58.785Z,11.07
2023-03-04T09:43:04.713Z,13.40
2023-03-04T09:45:10.560Z,13.00
2023-03-04T09:47:17.129Z,10.73
2023-03-04T09:49:22.384Z,10.40
2023-03-04T09:51:43.379Z,6.17
2023-03-04T09:53:59.087Z,7.80
2023-03-04T09:56:04.802Z,9.27
2023-03-04T09:58:17.200Z,7.50
2023-03-04T10:00:26.447Z,9.20
2023-03-04T10:02:41.896Z,11.17
2023-03-04T10:04:51.496Z,9.00
2023-03-04T10:06:55.854Z,12.30
2023-03-04T10:09:03.852Z,10.13
2023-03-04T10:11:14.548Z,17.53
2023-03-04T10:13:22.933Z,11.53
2023-03-04T10:15:32.995Z,5.90
2023-03-04T10:17:38.931Z,6.80
2023-03-04T10:19:58.923Z,7.80
2023-03-04T10:22:03.121Z,16.10
2023-03-04T10:24:14.771Z,11.47
2023-03-04T10:26:21.113Z,11.87
2023-03-04T10:28:28.177Z,9.00
2023-03-04T10:30:51.417Z,10.30
2023-03-04T10:32:56.130Z,10.10
2023-03-04T10:34:59.603Z,7.37
2023-03-04T10:37:05.700Z,8.37
2023-03-04T10:39:14.278Z,10.83
2023-03-04T10:41:21.273Z,6.50
2023-03-04T10:43:24.847Z,7.63
2023-03-04T10:45:35.489Z,9.97
2023-03-04T10:47:39.052Z,12.60
2023-03-04T10:49:53.687Z,12.10
2023-03-04T10:52:04.845Z,12.63
2023-03-04T10:54:12.462Z,8.10
2023-03-04T10:56:35.480Z,11.97
2023-03-04T10:58:38.984Z,9.50
2023-03-04T11:00:42.612Z,8.33
2023-03-04T11:02:47.208Z,8.20
2023-03-04T11:04:56.824Z,8.60
2023-03-04T11:07:00.557Z,22.73
2023-03-04T11:09:04.008Z,11.53
2023-03-04T11:11:34.719Z,6.77
2023-03-04T11:13:38.274Z,10.67
2023-03-04T11:15:52.302Z,8.57
2023-03-04T11:17:58.442Z,10.23
2023-03-04T11:20:14.135Z,12.27
2023-03-04T11:22:19.664Z,7.50
2023-03-04T11:24:29.550Z,11.30
2023-03-04T11:26:39.199Z,8.47
2023-03-04T11:28:47.859Z,8.17
2023-03-04T11:30:56.674Z,7.30
2023-03-04T11:33:10.356Z,10.50
2023-03-04T11:35:24.085Z,10.53
2023-03-04T11:37:32.993Z,8.47
2023-03-04T11:39:39.446Z,8.80
2023-03-04T11:41:51.785Z,7.93
2023-03-04T11:43:55.252Z,15.37
2023-03-04T11:46:35.816Z,6.30
2023-03-04T11:48:53.957Z,9.87
2023-03-04T11:51:05.753Z,8.50
2023-03-04T11:53:33.349Z,6.77
2023-03-04T11:55:45.296Z,17.03
2023-03-04T11:57:59.135Z,9.13
2023-03-04T12:00:35.950Z,17.10
2023-03-04T12:02:50.183Z,8.10
2023-03-04T12:05:17.525Z,9.43
2023-03-04T12:07:37.309Z,7.17
2023-03-04T12:09:51.168Z,4.87
2023-03-04T12:12:05.395Z,5.27
2023-03-04T12:14:26.990Z,7.00
2023-03-04T12:16:45.566Z,12.77
2023-03-04T12:19:06.568Z,10.80
2023-03-04T12:21:28.877Z,9.43
2023-03-04T12:23:49.928Z,7.77
2023-03-04T12:26:01.994Z,12.37
2023-03-04T12:28:22.398Z,10.50
2023-03-04T12:30:42.129Z,8.73
2023-03-04T12:32:53.322Z,5.70
2023-03-04T12:35:18.506Z,9.03
2023-03-04T12:37:47.112Z,10.70
2023-03-04T12:40:07.170Z,8.30
2023-03-04T12:42:22.595Z,5.90
2023-03-04T12:44:26.107Z,7.43
2023-03-04T12:46:41.805Z,8.07
2023-03-04T12:48:53.887Z,7.73
2023-03-04T12:51:06.861Z,11.00
2023-03-04T12:53:22.554Z,10.90
2023-03-04T12:55:33.016Z,10.07
2023-03-04T12:57:37.059Z,10.83
2023-03-04T12:59:49.105Z,6.03
2023-03-04T13:02:03.937Z,16.03
2023-03-04T13:04:12.812Z,5.30
2023-03-04T13:06:26.461Z,6.83
2023-03-04T13:08:37.282Z,5.03
2023-03-04T13:10:40.976Z,9.70
2023-03-04T13:12:48.971Z,5.40
2023-03-04T13:15:28.623Z,7.00
2023-03-04T13:17:47.168Z,11.80
2023-03-04T13:19:53.808Z,16.37
2023-03-04T13:21:58.005Z,8.13
2023-03-04T13:24:23.838Z,6.70
2023-03-04T13:26:32.900Z,7.23
2023-03-04T13:28:38.504Z,10.43
2023-03-04T13:31:14.075Z,8.57
2023-03-04T13:33:52.674Z,13.63
2023-03-04T13:36:02.224Z,6.53
2023-03-04T13:38:24.035Z,9.53
2023-03-04T13:40:38.213Z,8.47
2023-03-04T13:42:43.394Z,15.50
2023-03-04T13:45:04.756Z,8.83
2023-03-04T13:47:17.061Z,8.67
2023-03-04T13:49:26.244Z,8.30
2023-03-04T13:51:33.148Z,7.30
2023-03-04T13:53:42.509Z,15.37
2023-03-04T13:55:46.900Z,9.47
2023-03-04T13:57:51.932Z,8.23
2023-03-04T13:59:57.634Z,9.87
2023-03-04T14:02:11.927Z,9.60
2023-03-04T14:04:20.476Z,10.33
2023-03-04T14:06:27.142Z,11.77
2023-03-04T14:08:30.503Z,9.23
2023-03-04T14:10:33.895Z,12.60
2023-03-04T14:12:39.007Z,12.80
2023-03-04T14:14:48.867Z,8.40
2023-03-04T14:16:54.869Z,7.67
2023-03-04T14:19:00.676Z,5.50
2023-03-04T14:21:04.066Z,8.57
2023-03-04T14:23:25.893Z,12.00
2023-03-04T14:25:31.045Z,7.27
2023-03-04T14:27:36.463Z,7.80
2023-03-04T14:29:39.808Z,10.07
2023-03-04T14:31:43.496Z,9.50
2023-03-04T14:33:49.652Z,10.60
2023-03-04T14:35:55.478Z,7.10
2023-03-04T14:38:03.257Z,9.70
2023-03-04T14:40:09.742Z,12.00
2023-03-04T14:42:15.671Z,8.20
2023-03-04T14:44:30.454Z,9.57
2023-03-04T14:46:40.408Z,7.17
2023-03-04T14:48:49.708Z,8.03
2023-03-04T14:50:54.588Z,9.97
2023-03-04T14:53:17.128Z,9.10
2023-03-04T14:55:24.787Z,11.70
2023-03-04T14:57:34.229Z,8.47
2023-03-04T14:59:37.806Z,10.83
2023-03-04T15:01:41.407Z,9.93
2023-03-04T15:03:47.749Z,7.10
2023-03-04T15:05:53.019Z,11.53
2023-03-04T15:07:58.048Z,9.23
2023-03-04T15:10:03.793Z,6.97
2023-03-04T15:12:11.224Z,7.40
2023-03-04T15:14:44.255Z,9.97
2023-03-04T15:16:58.453Z,6.87
2023-03-04T15:19:05.929Z,7.80
2023-03-04T15:21:31.729Z,8.47
2023-03-04T15:23:35.313Z,5.97
2023-03-04T15:25:38.812Z,13.37
2023-03-04T15:27:45.565Z,11.60
2023-03-04T15:29:49.038Z,8.17
2023-03-04T15:31:52.395Z,9.63
2023-03-04T15:33:55.949Z,9.40
2023-03-04T15:36:02.570Z,8.60
2023-03-04T15:38:08.375Z,9.93
2023-03-04T15:40:16.610Z,7.23
2023-03-04T15:42:20.506Z,11.20
2023-03-04T15:44:25.352Z,7.03
2023-03-04T15:46:28.810Z,12.23
2023-03-04T15:48:32.224Z,5.73
2023-03-04T15:50:37.577Z,6.33
2023-03-04T15:52:41.171Z,7.00
2023-03-04T15:54:44.553Z,9.87
2023-03-04T15:56:47.801Z,12.20
2023-03-04T15:58:55.574Z,9.37
2023-03-04T16:01:00.447Z,8.80
2023-03-04T16:03:04.186Z,10.47
2023-03-04T16:05:08.760Z,10.40
2023-03-04T16:07:18.005Z,32.43
2023-03-04T16:09:23.072Z,15.27
2023-03-04T16:11:30.046Z,11.77
2023-03-04T16:13:33.812Z,8.87
2023-03-04T16:15:37.044Z,3.63
2023-03-04T16:17:44.237Z,9.67
2023-03-04T16:19:48.169Z,11.87
2023-03-04T16:21:53.539Z,26.60
2023-03-04T16:23:57.349Z,33.00
2023-03-04T16:26:00.767Z,17.73
2023-03-04T16:28:04.222Z,17.27
2023-03-04T16:30:08.910Z,18.50
2023-03-04T16:32:12.769Z,21.47
2023-03-04T16:34:17.570Z,46.17
2023-03-04T16:36:23.514Z,37.57
2023-03-04T16:38:30.019Z,22.10
2023-03-04T16:40:36.060Z,26.73
2023-03-04T16:42:40.141Z,38.60
2023-03-04T16:44:44.069Z,37.70
2023-03-04T16:46:47.605Z,38.27
2023-03-04T16:48:51.173Z,23.50
2023-03-04T16:50:57.382Z,15.70
2023-03-04T16:53:00.771Z,18.10
2023-03-04T16:55:04.103Z,10.37
2023-03-04T16:57:07.450Z,58.75
2023-03-04T16:59:16.063Z,57.15
2023-03-04T17:01:20.731Z,34.50
2023-03-04T17:03:24.632Z,23.65
2023-03-04T17:05:31.079Z,15.05
2023-03-04T17:07:36.135Z,14.65
2023-03-04T17:09:39.733Z,13.55
2023-03-04T17:11:43.213Z,23.60
2023-03-04T17:13:46.805Z,11.45
2023-03-04T17:15:50.102Z,10.05
2023-03-04T17:17:53.584Z,9.75
2023-03-04T17:19:57.072Z,12.30
2023-03-04T17:22:02.185Z,15.52
2023-03-04T17:24:11.088Z,15.32
2023-03-04T17:26:21.273Z,15.35
2023-03-04T17:28:24.804Z,14.13
2023-03-04T17:30:28.360Z,13.07
2023-03-04T17:32:32.795Z,13.25
2023-03-04T17:34:36.530Z,20.23
2023-03-04T17:36:40.504Z,13.88
2023-03-04T17:38:44.289Z,7.85
2023-03-04T17:40:49.332Z,15.35
2023-03-04T17:42:57.156Z,13.27
2023-03-04T17:45:00.504Z,9.60
2023-03-04T17:47:04.513Z,8.18
2023-03-04T17:49:08.106Z,8.82
2023-03-04T17:51:12.249Z,18.02
2023-03-04T17:53:15.820Z,6.35
2023-03-04T17:55:19.419Z,7.28
2023-03-04T17:57:24.647Z,10.63
2023-03-04T17:59:28.049Z,7.68
2023-03-04T18:01:31.880Z,8.50
2023-03-04T18:03:35.545Z,6.60
2023-03-04T18:05:39.061Z,8.27
2023-03-04T18:07:42.476Z,10.43
2023-03-04T18:09:47.469Z,7.03
2023-03-04T18:11:50.980Z,5.55
2023-03-04T18:13:56.722Z,4.03
2023-03-04T18:16:00.216Z,6.97
2023-03-04T18:18:03.618Z,12.48
2023-03-04T18:20:08.204Z,7.93
2023-03-04T18:22:11.558Z,7.57
2023-03-04T18:24:15.099Z,7.55
2023-03-04T18:26:21.073Z,5.50
2023-03-04T18:28:24.798Z,11.40
2023-03-04T18:30:29.468Z,6.05
2023-03-04T18:32:45.732Z,6.57
2023-03-04T18:34:54.890Z,5.43
2023-03-04T18:36:58.280Z,10.20
2023-03-04T18:39:04.244Z,14.25
2023-03-04T18:41:08.954Z,5.88
2023-03-04T18:43:12.298Z,4.75
2023-03-04T18:45:17.180Z,6.72
2023-03-04T18:47:22.655Z,6.22
2023-03-04T18:49:26.396Z,6.45
2023-03-04T18:51:29.679Z,7.63
2023-03-04T18:53:33.420Z,3.88
2023-03-04T18:55:36.815Z,4.72
2023-03-04T18:57:40.916Z,15.07
2023-03-04T18:59:49.020Z,6.78
2023-03-04T19:01:53.458Z,7.82
2023-03-04T19:04:03.209Z,6.38
2023-03-04T19:06:07.614Z,6.25
2023-03-04T19:08:11.090Z,6.75
2023-03-04T19:10:15.217Z,4.05
2023-03-04T19:12:18.905Z,14.63
2023-03-04T19:14:22.229Z,9.75
2023-03-04T19:16:25.801Z,7.90
2023-03-04T19:18:30.242Z,6.30
2023-03-04T19:20:35.130Z,3.33
2023-03-04T19:22:38.515Z,5.82
2023-03-04T19:24:42.150Z,11.18
2023-03-04T19:26:45.504Z,4.07
2023-03-04T19:28:50.874Z,10.00
2023-03-04T19:30:58.971Z,5.07
2023-03-04T19:33:05.464Z,5.35
2023-03-04T19:35:09.267Z,7.57
2023-03-04T19:37:14.484Z,9.02
2023-03-04T19:39:18.881Z,5.85
2023-03-04T19:41:22.397Z,3.17
2023-03-04T19:43:25.885Z,6.57
2023-03-04T19:45:29.383Z,6.88
2023-03-04T19:47:32.944Z,7.68
2023-03-04T19:49:36.989Z,3.85
2023-03-04T19:51:44.752Z,5.65
2023-03-04T19:53:50.862Z,5.70
2023-03-04T19:55:54.402Z,8.43
2023-03-04T19:57:59.690Z,5.35
2023-03-04T20:00:04.189Z,7.43
2023-03-04T20:02:07.790Z,5.35
2023-03-04T20:04:13.112Z,9.50
2023-03-04T20:06:16.625Z,3.90
2023-03-04T20:08:22.040Z,6.07
2023-03-04T20:10:27.061Z,8.90
2023-03-04T20:12:31.362Z,5.07
2023-03-04T20:14:36.590Z,6.57
2023-03-04T20:16:39.834Z,6.47
2023-03-04T20:18:43.706Z,6.38
2023-03-04T20:20:48.857Z,6.60
2023-03-04T20:22:52.446Z,7.55
2023-03-04T20:24:56.017Z,7.45
2023-03-04T20:27:00.946Z,9.05
2023-03-04T20:29:04.634Z,7.10
2023-03-04T20:31:13.022Z,7.45
2023-03-04T20:33:17.481Z,5.22
2023-03-04T20:35:20.801Z,6.75
2023-03-04T20:37:24.336Z,6.07
2023-03-04T20:39:29.922Z,11.20
2023-03-04T20:41:34.780Z,30.48
2023-03-04T20:43:39.864Z,42.25
2023-03-04T20:45:43.353Z,34.53
2023-03-04T20:47:47.328Z,34.00
2023-03-04T20:49:50.635Z,27.08
2023-03-04T20:51:54.963Z,22.00
2023-03-04T20:53:58.514Z,16.38
2023-03-04T20:56:04.340Z,14.10
2023-03-04T20:58:08.128Z,22.40
2023-03-04T21:00:14.699Z,22.70
2023-03-04T21:02:19.768Z,11.05
2023-03-04T21:04:23.676Z,14.15
2023-03-04T21:06:29.125Z,10.57
2023-03-04T21:08:32.464Z,9.05
2023-03-04T21:10:37.103Z,10.10
2023-03-04T21:12:40.406Z,9.93
2023-03-04T21:14:45.064Z,10.52
2023-03-04T21:16:51.262Z,10.48
2023-03-04T21:18:55.110Z,8.00
2023-03-04T21:20:58.360Z,12.70
2023-03-04T21:23:02.149Z,8.85
2023-03-04T21:25:06.180Z,10.93
2023-03-04T21:27:09.665Z,6.95
2023-03-04T21:29:13.232Z,9.50
2023-03-04T21:31:20.040Z,8.77
2023-03-04T21:33:31.769Z,15.00
2023-03-04T21:35:37.209Z,11.73
2023-03-04T21:37:41.794Z,15.70
2023-03-04T21:41:49.518Z,9.63
2023-03-04T21:43:53.584Z,12.95
2023-03-04T21:45:58.418Z,16.65
2023-03-04T21:48:01.617Z,14.77
2023-03-04T21:50:07.150Z,16.00
2023-03-04T21:52:10.676Z,17.90
2023-03-04T21:54:15.314Z,15.57
2023-03-04T21:56:18.665Z,10.77
2023-03-04T21:58:22.633Z,12.00
2023-03-04T22:00:26.310Z,7.82
2023-03-04T22:02:29.778Z,9.13
2023-03-04T22:04:33.504Z,11.82
2023-03-04T22:06:40.104Z,8.68
2023-03-04T22:08:44.662Z,12.30
2023-03-04T22:10:49.075Z,14.95
2023-03-04T22:12:53.080Z,10.77
2023-03-04T22:14:56.474Z,11.18
2023-03-04T22:17:00.465Z,14.98
2023-03-04T22:19:03.809Z,10.70
2023-03-04T22:21:09.317Z,11.88
2023-03-04T22:23:14.059Z,8.95
2023-03-04T22:25:17.573Z,13.95
2023-03-04T22:27:21.835Z,8.68
2023-03-04T22:29:25.474Z,10.20
2023-03-04T22:31:31.811Z,7.85
2023-03-04T22:33:38.140Z,10.70
2023-03-04T22:35:41.907Z,10.35
2023-03-04T22:37:46.221Z,9.80
2023-03-04T22:39:50.960Z,7.93
2023-03-04T22:41:54.263Z,12.15
2023-03-04T22:43:58.876Z,9.00
2023-03-04T22:46:02.650Z,21.42
2023-03-04T22:48:17.437Z,24.45
2023-03-04T22:50:23.181Z,17.63
2023-03-04T22:52:26.670Z,12.25
2023-03-04T22:54:30.172Z,8.07
2023-03-04T22:56:36.585Z,10.43
2023-03-04T22:58:40.535Z,10.93
2023-03-04T23:00:44.171Z,11.95
2023-03-04T23:02:47.620Z,15.27
2023-03-04T23:04:51.078Z,13.02
2023-03-04T23:06:54.713Z,7.30
2023-03-04T23:09:00.191Z,10.18
2023-03-04T23:11:03.808Z,6.07
2023-03-04T23:13:08.776Z,7.78
2023-03-04T23:15:14.422Z,7.72
2023-03-04T23:17:17.817Z,12.45
2023-03-04T23:19:21.272Z,10.23
2023-03-04T23:21:28.401Z,7.63
2023-03-04T23:23:31.865Z,10.77
2023-03-04T23:25:36.609Z,8.02
2023-03-04T23:27:40.629Z,8.63
2023-03-04T23:29:45.609Z,11.65
2023-03-04T23:31:50.843Z,7.80
2023-03-04T23:33:57.361Z,10.45
2023-03-04T23:36:01.040Z,9.93
2023-03-04T23:38:04.665Z,12.95
2023-03-04T23:40:10.493Z,16.83
2023-03-04T23:42:13.958Z,14.90
2023-03-04T23:44:17.342Z,13.18
2023-03-04T23:46:22.426Z,15.00
2023-03-04T23:48:26.788Z,11.20
2023-03-04T23:50:32.250Z,14.63
2023-03-04T23:52:35.755Z,14.95
2023-03-04T23:54:39.175Z,12.88
2023-03-04T23:56:43.008Z,8.10
2023-03-04T23:58:47.688Z,14.25
